createdAt,value
2023-12-08T00:00:26.380Z,5.10
2023-12-08T00:01:19.515Z,4.50
2023-12-08T00:01:52.733Z,5.20
2023-12-08T00:02:25.766Z,4.70
2023-12-08T00:03:34.398Z,4.90
2023-12-08T00:04:07.748Z,4.60
2023-12-08T00:04:41.020Z,4.80
2023-12-08T00:05:15.328Z,4.90
2023-12-08T00:05:48.566Z,4.20
2023-12-08T00:06:23.274Z,4.60
2023-12-08T00:06:57.118Z,5.10
2023-12-08T00:07:30.233Z,5.20
2023-12-08T00:08:37.101Z,4.00
2023-12-08T00:09:11.045Z,4.60
2023-12-08T00:09:44.300Z,4.50
2023-12-08T00:10:19.643Z,4.80
2023-12-08T00:10:52.975Z,4.50
2023-12-08T00:11:26.233Z,4.70
2023-12-08T00:12:02.835Z,4.90
2023-12-08T00:12:37.982Z,4.60
2023-12-08T00:13:11.219Z,5.80
2023-12-08T00:13:45.781Z,4.50
2023-12-08T00:14:21.443Z,5.20
2023-12-08T00:15:27.726Z,4.40
2023-12-08T00:16:00.881Z,3.50
2023-12-08T00:16:38.112Z,4.80
2023-12-08T00:17:11.255Z,3.60
2023-12-08T00:17:44.556Z,4.20
2023-12-08T00:18:17.858Z,4.60
2023-12-08T00:18:51.089Z,4.50
2023-12-08T00:19:25.122Z,5.40
2023-12-08T00:19:58.415Z,4.40
2023-12-08T00:20:31.571Z,5.40
2023-12-08T00:21:04.723Z,6.00
2023-12-08T00:21:37.996Z,4.70
2023-12-08T00:22:11.118Z,4.90
2023-12-08T00:22:44.331Z,4.90
2023-12-08T00:23:17.732Z,5.00
2023-12-08T00:23:56.743Z,4.00
2023-12-08T00:24:29.877Z,4.40
2023-12-08T00:25:02.942Z,5.20
2023-12-08T00:26:09.065Z,5.10
2023-12-08T00:26:42.404Z,4.00
2023-12-08T00:27:18.629Z,4.70
2023-12-08T00:27:51.798Z,4.90
2023-12-08T00:28:24.879Z,4.50
2023-12-08T00:28:57.988Z,4.70
2023-12-08T00:30:06.080Z,5.30
2023-12-08T00:30:39.280Z,4.90
2023-12-08T00:31:47.058Z,4.50
2023-12-08T00:32:20.168Z,5.20
2023-12-08T00:32:53.570Z,4.10
2023-12-08T00:33:26.949Z,4.70
2023-12-08T00:34:00.412Z,4.70
2023-12-08T00:34:34.303Z,4.80
2023-12-08T00:35:08.435Z,6.00
2023-12-08T00:35:42.938Z,4.50
2023-12-08T00:36:18.163Z,4.30
2023-12-08T00:36:51.368Z,4.60
2023-12-08T00:37:26.654Z,4.70
2023-12-08T00:38:00.278Z,5.80
2023-12-08T00:38:34.081Z,4.50
2023-12-08T00:39:08.754Z,4.70
2023-12-08T00:39:42.071Z,4.80
2023-12-08T00:40:17.686Z,4.90
2023-12-08T00:40:51.278Z,4.70
2023-12-08T00:41:26.607Z,4.40
2023-12-08T00:42:00.554Z,4.60
2023-12-08T00:42:34.917Z,4.40
2023-12-08T00:43:08.304Z,5.30
2023-12-08T00:43:41.826Z,4.70
2023-12-08T00:44:14.981Z,4.50
2023-12-08T00:44:48.541Z,4.50
2023-12-08T00:45:22.527Z,4.60
2023-12-08T00:45:56.658Z,4.90
2023-12-08T00:46:30.993Z,5.00
2023-12-08T00:47:05.728Z,4.50
2023-12-08T00:47:39.079Z,3.90
2023-12-08T00:48:12.566Z,5.30
2023-12-08T00:48:46.457Z,5.00
2023-12-08T00:49:19.771Z,5.00
2023-12-08T00:49:53.097Z,4.80
2023-12-08T00:50:59.324Z,4.90
2023-12-08T00:51:32.481Z,4.60
2023-12-08T00:52:06.300Z,4.30
2023-12-08T00:52:39.540Z,4.60
2023-12-08T00:53:12.672Z,4.90
2023-12-08T00:54:19.892Z,4.50
2023-12-08T00:55:26.701Z,4.10
2023-12-08T00:55:59.737Z,4.20
2023-12-08T00:57:06.054Z,3.90
2023-12-08T00:57:39.196Z,3.70
2023-12-08T00:58:16.017Z,4.10
2023-12-08T00:58:49.160Z,5.00
2023-12-08T00:59:22.430Z,4.30
2023-12-08T01:00:28.667Z,4.60
2023-12-08T01:01:01.993Z,4.10
2023-12-08T01:01:35.390Z,4.00
2023-12-08T01:02:42.294Z,5.20
2023-12-08T01:03:16.120Z,4.80
2023-12-08T01:03:49.426Z,3.80
2023-12-08T01:04:22.637Z,4.30
2023-12-08T01:05:28.717Z,3.80
2023-12-08T01:06:36.562Z,4.40
2023-12-08T01:07:45.830Z,4.00
2023-12-08T01:08:19.052Z,5.20
2023-12-08T01:08:52.246Z,4.50
2023-12-08T01:09:26.701Z,4.10
2023-12-08T01:09:59.911Z,5.60
2023-12-08T01:11:07.400Z,3.60
2023-12-08T01:11:40.634Z,5.80
2023-12-08T01:12:13.825Z,5.50
2023-12-08T01:13:21.845Z,3.50
2023-12-08T01:13:57.102Z,5.20
2023-12-08T01:14:30.378Z,4.60
2023-12-08T01:15:03.849Z,3.90
2023-12-08T01:15:39.568Z,4.60
2023-12-08T01:16:12.677Z,4.40
2023-12-08T01:16:47.621Z,5.10
2023-12-08T01:17:24.369Z,4.40
2023-12-08T01:17:57.729Z,4.20
2023-12-08T01:18:31.009Z,4.40
2023-12-08T01:19:04.302Z,5.20
2023-12-08T01:19:37.491Z,4.60
2023-12-08T01:20:11.123Z,5.50
2023-12-08T01:20:44.451Z,4.10
2023-12-08T01:21:17.776Z,4.30
2023-12-08T01:21:51.211Z,4.90
2023-12-08T01:22:29.035Z,5.40
2023-12-08T01:23:02.462Z,4.70
2023-12-08T01:23:35.554Z,4.10
2023-12-08T01:24:09.559Z,5.40
2023-12-08T01:24:42.697Z,5.00
2023-12-08T01:25:52.514Z,3.60
2023-12-08T01:26:25.600Z,3.90
2023-12-08T01:26:58.835Z,4.10
2023-12-08T01:27:33.327Z,4.20
2023-12-08T01:28:39.551Z,4.50
2023-12-08T01:29:13.348Z,4.70
2023-12-08T01:29:46.388Z,4.50
2023-12-08T01:30:54.173Z,5.00
2023-12-08T01:32:00.507Z,4.30
2023-12-08T01:32:33.789Z,4.50
2023-12-08T01:33:07.038Z,4.20
2023-12-08T01:33:40.448Z,5.00
2023-12-08T01:34:14.057Z,4.20
2023-12-08T01:34:47.973Z,4.10
2023-12-08T01:35:21.663Z,4.20
2023-12-08T01:36:37.326Z,5.70
2023-12-08T01:36:47.824Z,4.50
2023-12-08T01:37:21.038Z,5.00
2023-12-08T01:37:54.234Z,3.70
2023-12-08T01:38:29.745Z,4.00
2023-12-08T01:39:03.066Z,3.70
2023-12-08T01:39:38.238Z,4.90
2023-12-08T01:40:15.235Z,4.40
2023-12-08T01:40:48.714Z,5.50
2023-12-08T01:41:55.220Z,3.90
2023-12-08T01:43:06.485Z,3.90
2023-12-08T01:43:42.070Z,4.30
2023-12-08T01:44:15.241Z,4.20
2023-12-08T01:44:48.346Z,4.70
2023-12-08T01:45:21.451Z,4.10
2023-12-08T01:45:57.736Z,4.40
2023-12-08T01:46:31.249Z,4.80
2023-12-08T01:47:06.017Z,4.10
2023-12-08T01:47:40.954Z,4.30
2023-12-08T01:48:14.578Z,4.10
2023-12-08T01:48:48.678Z,4.50
2023-12-08T01:49:22.105Z,4.00
2023-12-08T01:49:55.318Z,4.20
2023-12-08T01:50:28.623Z,4.40
2023-12-08T01:51:04.479Z,3.80
2023-12-08T01:51:37.796Z,3.30
2023-12-08T01:52:12.315Z,4.60
2023-12-08T01:52:45.856Z,5.30
2023-12-08T01:53:23.886Z,4.80
2023-12-08T01:53:58.267Z,4.30
2023-12-08T01:54:32.473Z,4.10
2023-12-08T01:55:05.927Z,4.20
2023-12-08T01:55:39.735Z,4.70
2023-12-08T01:56:13.369Z,4.30
2023-12-08T01:56:46.653Z,4.70
2023-12-08T01:57:20.996Z,4.30
2023-12-08T01:57:54.698Z,5.10
2023-12-08T01:58:28.268Z,4.50
2023-12-08T01:59:02.050Z,3.80
2023-12-08T01:59:35.477Z,4.10
2023-12-08T02:00:09.425Z,6.00
2023-12-08T02:00:46.810Z,4.90
2023-12-08T02:01:20.080Z,4.50
2023-12-08T02:01:53.213Z,4.90
2023-12-08T02:02:26.390Z,4.80
2023-12-08T02:02:59.842Z,4.00
2023-12-08T02:03:37.119Z,4.90
2023-12-08T02:04:10.397Z,4.80
2023-12-08T02:04:46.141Z,4.40
2023-12-08T02:05:21.924Z,4.20
2023-12-08T02:05:55.306Z,5.20
2023-12-08T02:06:28.503Z,4.60
2023-12-08T02:07:02.620Z,5.30
2023-12-08T02:07:35.731Z,4.50
2023-12-08T02:08:42.066Z,4.30
2023-12-08T02:09:16.658Z,5.10
2023-12-08T02:09:49.752Z,4.40
2023-12-08T02:10:56.209Z,4.10
2023-12-08T02:11:29.941Z,3.80
2023-12-08T02:12:03.399Z,4.80
2023-12-08T02:12:36.788Z,4.40
2023-12-08T02:13:12.612Z,4.20
2023-12-08T02:13:46.337Z,4.50
2023-12-08T02:14:19.610Z,4.00
2023-12-08T02:14:53.734Z,4.40
2023-12-08T02:15:26.840Z,4.80
2023-12-08T02:16:49.795Z,3.60
2023-12-08T02:17:31.770Z,5.20
2023-12-08T02:18:07.110Z,4.60
2023-12-08T02:18:41.986Z,4.00
2023-12-08T02:19:18.499Z,4.50
2023-12-08T02:19:52.884Z,5.00
2023-12-08T02:20:26.022Z,5.70
2023-12-08T02:20:59.306Z,3.50
2023-12-08T02:21:33.125Z,4.60
2023-12-08T02:22:06.588Z,4.40
2023-12-08T02:22:42.733Z,5.80
2023-12-08T02:23:51.678Z,4.00
2023-12-08T02:24:25.899Z,3.70
2023-12-08T02:25:32.107Z,4.00
2023-12-08T02:26:39.957Z,3.90
2023-12-08T02:27:13.214Z,5.20
2023-12-08T02:27:46.466Z,5.00
2023-12-08T02:28:20.350Z,5.00
2023-12-08T02:28:54.154Z,4.40
2023-12-08T02:29:27.503Z,4.20
2023-12-08T02:30:00.715Z,4.80
2023-12-08T02:30:34.577Z,4.20
2023-12-08T02:31:11.868Z,4.20
2023-12-08T02:31:56.354Z,4.90
2023-12-08T02:32:36.939Z,3.80
2023-12-08T02:33:14.764Z,4.20
2023-12-08T02:33:51.207Z,3.20
2023-12-08T02:34:27.999Z,3.90
2023-12-08T02:35:05.182Z,4.20
2023-12-08T02:35:42.244Z,5.00
2023-12-08T02:36:17.701Z,4.90
2023-12-08T02:36:53.941Z,4.40
2023-12-08T02:37:30.689Z,4.20
2023-12-08T02:38:07.316Z,4.50
2023-12-08T02:38:42.106Z,4.60
2023-12-08T02:39:17.926Z,3.90
2023-12-08T02:39:53.270Z,5.30
2023-12-08T02:40:27.127Z,4.50
2023-12-08T02:41:00.913Z,4.60
2023-12-08T02:41:34.090Z,4.60
2023-12-08T02:42:08.885Z,4.90
2023-12-08T02:42:42.110Z,4.60
2023-12-08T02:43:16.377Z,4.90
2023-12-08T02:43:51.144Z,4.40
2023-12-08T02:45:30.344Z,5.50
2023-12-08T02:46:03.834Z,3.70
2023-12-08T02:46:39.504Z,4.30
2023-12-08T02:47:12.853Z,5.10
2023-12-08T02:47:46.066Z,4.90
2023-12-08T02:48:19.577Z,4.50
2023-12-08T02:48:56.038Z,3.90
2023-12-08T02:49:31.801Z,4.20
2023-12-08T02:50:06.045Z,5.60
2023-12-08T02:50:39.281Z,4.40
2023-12-08T02:51:12.487Z,4.30
2023-12-08T02:51:59.798Z,4.30
2023-12-08T02:52:32.867Z,4.80
2023-12-08T02:53:06.995Z,3.70
2023-12-08T02:53:40.193Z,5.00
2023-12-08T02:54:13.480Z,4.40
2023-12-08T02:54:46.639Z,4.10
2023-12-08T02:55:19.755Z,3.70
2023-12-08T02:55:53.912Z,4.00
2023-12-08T02:56:27.044Z,4.00
2023-12-08T02:57:33.177Z,4.10
2023-12-08T02:58:06.289Z,4.40
2023-12-08T02:59:12.363Z,4.80
2023-12-08T02:59:47.832Z,4.10
2023-12-08T03:00:21.044Z,4.70
2023-12-08T03:00:56.380Z,3.70
2023-12-08T03:01:29.593Z,3.90
2023-12-08T03:02:02.745Z,4.00
2023-12-08T03:02:35.868Z,4.50
2023-12-08T03:03:11.046Z,3.60
2023-12-08T03:03:44.769Z,4.30
2023-12-08T03:04:18.015Z,4.50
2023-12-08T03:04:51.302Z,4.20
2023-12-08T03:05:57.381Z,3.80
2023-12-08T03:06:30.520Z,4.30
2023-12-08T03:07:38.768Z,4.10
2023-12-08T03:08:11.826Z,4.70
2023-12-08T03:08:45.036Z,3.90
2023-12-08T03:09:18.142Z,3.90
2023-12-08T03:09:55.706Z,4.90
2023-12-08T03:10:28.797Z,3.90
2023-12-08T03:11:02.050Z,4.50
2023-12-08T03:11:35.986Z,3.90
2023-12-08T03:12:09.278Z,3.90
2023-12-08T03:12:43.425Z,3.90
2023-12-08T03:13:17.220Z,4.50
2023-12-08T03:13:50.536Z,4.10
2023-12-08T03:14:26.277Z,4.50
2023-12-08T03:14:59.439Z,3.80
2023-12-08T03:15:32.577Z,4.70
2023-12-08T03:16:39.337Z,4.20
2023-12-08T03:17:13.380Z,4.00
2023-12-08T03:17:46.768Z,4.20
2023-12-08T03:18:20.055Z,4.30
2023-12-08T03:18:53.313Z,3.50
2023-12-08T03:19:26.567Z,4.40
2023-12-08T03:20:02.737Z,4.00
2023-12-08T03:20:35.937Z,4.70
2023-12-08T03:21:09.508Z,3.80
2023-12-08T03:21:44.132Z,4.90
2023-12-08T03:22:18.281Z,4.20
2023-12-08T03:22:51.363Z,4.50
2023-12-08T03:23:57.695Z,4.40
2023-12-08T03:24:32.829Z,4.10
2023-12-08T03:25:08.747Z,3.60
2023-12-08T03:25:41.867Z,4.80
2023-12-08T03:26:15.057Z,4.80
2023-12-08T03:26:48.344Z,4.40
2023-12-08T03:27:21.460Z,4.10
2023-12-08T03:27:54.790Z,4.70
2023-12-08T03:28:27.956Z,3.60
2023-12-08T03:29:02.370Z,4.10
2023-12-08T03:29:39.940Z,3.50
2023-12-08T03:30:15.812Z,4.00
2023-12-08T03:30:48.952Z,4.00
2023-12-08T03:31:26.714Z,4.20
2023-12-08T03:31:59.799Z,4.80
2023-12-08T03:32:33.582Z,4.40
2023-12-08T03:33:07.153Z,4.20
2023-12-08T03:33:40.444Z,3.30
2023-12-08T03:34:13.743Z,4.50
2023-12-08T03:34:46.941Z,3.80
2023-12-08T03:35:21.775Z,4.20
2023-12-08T03:35:54.913Z,3.90
2023-12-08T03:36:28.070Z,3.70
2023-12-08T03:37:34.161Z,3.50
2023-12-08T03:38:08.424Z,3.60
2023-12-08T03:38:41.759Z,2.80
2023-12-08T03:39:15.077Z,3.50
2023-12-08T03:39:48.221Z,4.10
2023-12-08T03:40:54.357Z,3.30
2023-12-08T03:42:00.554Z,3.00
2023-12-08T03:42:37.850Z,3.50
2023-12-08T03:43:11.032Z,3.80
2023-12-08T03:44:52.629Z,3.10
2023-12-08T03:45:25.646Z,3.70
2023-12-08T03:46:31.759Z,3.10
2023-12-08T03:47:38.985Z,3.40
2023-12-08T03:48:12.382Z,4.00
2023-12-08T03:48:50.927Z,3.40
2023-12-08T03:49:28.065Z,3.90
2023-12-08T03:50:01.893Z,3.70
2023-12-08T03:50:35.015Z,3.30
2023-12-08T03:51:08.502Z,3.50
2023-12-08T03:51:42.075Z,3.90
2023-12-08T03:52:15.280Z,3.30
2023-12-08T03:52:54.195Z,3.50
2023-12-08T03:53:27.305Z,3.00
2023-12-08T03:54:00.519Z,3.80
2023-12-08T03:54:33.682Z,4.30
2023-12-08T03:55:07.294Z,3.50
2023-12-08T03:55:40.421Z,3.50
2023-12-08T03:56:13.594Z,3.60
2023-12-08T03:56:46.830Z,4.40
2023-12-08T03:57:21.199Z,3.90
2023-12-08T03:57:54.308Z,4.60
2023-12-08T03:59:01.695Z,4.00
2023-12-08T03:59:34.878Z,3.40
2023-12-08T04:00:10.360Z,3.80
2023-12-08T04:00:45.688Z,3.10
2023-12-08T04:01:28.831Z,3.80
2023-12-08T04:02:03.163Z,3.70
2023-12-08T04:02:36.436Z,3.90
2023-12-08T04:03:09.537Z,4.40
2023-12-08T04:03:42.806Z,3.40
2023-12-08T04:04:25.616Z,2.80
2023-12-08T04:05:00.492Z,3.70
2023-12-08T04:06:06.980Z,4.30
2023-12-08T04:06:45.042Z,3.10
2023-12-08T04:07:18.197Z,3.20
2023-12-08T04:08:24.489Z,3.10
2023-12-08T04:09:06.702Z,4.50
2023-12-08T04:09:39.776Z,2.90
2023-12-08T04:10:46.825Z,2.80
2023-12-08T04:11:20.015Z,2.90
2023-12-08T04:11:53.168Z,3.40
2023-12-08T04:12:27.704Z,3.70
2023-12-08T04:13:00.969Z,2.70
2023-12-08T04:13:42.100Z,3.20
2023-12-08T04:14:15.049Z,2.70
2023-12-08T04:15:21.130Z,2.50
2023-12-08T04:15:55.591Z,2.30
2023-12-08T04:17:01.772Z,3.40
2023-12-08T04:17:35.422Z,3.20
2023-12-08T04:18:09.203Z,3.20
2023-12-08T04:18:42.565Z,3.50
2023-12-08T04:19:16.010Z,3.10
2023-12-08T04:19:50.346Z,3.10
2023-12-08T04:20:24.032Z,3.50
2023-12-08T04:20:57.113Z,3.10
2023-12-08T04:21:30.226Z,3.20
2023-12-08T04:22:36.332Z,3.00
2023-12-08T04:23:45.043Z,2.60
2023-12-08T04:24:51.247Z,2.80
2023-12-08T04:25:58.869Z,3.20
2023-12-08T04:26:32.727Z,3.00
2023-12-08T04:27:06.317Z,3.40
2023-12-08T04:27:39.481Z,3.40
2023-12-08T04:28:15.708Z,3.00
2023-12-08T04:28:48.948Z,2.80
2023-12-08T04:29:22.125Z,3.00
2023-12-08T04:29:55.305Z,3.00
2023-12-08T04:30:29.014Z,3.20
2023-12-08T04:31:02.252Z,3.30
2023-12-08T04:31:35.330Z,4.00
2023-12-08T04:32:10.984Z,3.30
2023-12-08T04:32:46.825Z,3.30
2023-12-08T04:33:20.172Z,3.60
2023-12-08T04:33:53.971Z,4.40
2023-12-08T04:34:27.478Z,3.70
2023-12-08T04:35:00.721Z,3.90
2023-12-08T04:35:33.701Z,3.80
2023-12-08T04:36:08.487Z,3.40
2023-12-08T04:36:41.962Z,3.60
2023-12-08T04:37:15.553Z,3.30
2023-12-08T04:38:21.660Z,3.30
2023-12-08T04:39:27.773Z,3.40
2023-12-08T04:40:01.024Z,2.80
2023-12-08T04:40:34.111Z,3.40
2023-12-08T04:41:07.501Z,3.50
2023-12-08T04:41:40.780Z,3.30
2023-12-08T04:42:13.904Z,4.10
2023-12-08T04:42:48.275Z,3.80
2023-12-08T04:43:23.780Z,3.40
2023-12-08T04:43:57.236Z,2.90
2023-12-08T04:45:07.562Z,3.00
2023-12-08T04:45:43.295Z,4.00
2023-12-08T04:46:16.547Z,3.30
2023-12-08T04:46:50.033Z,4.40
2023-12-08T04:47:23.857Z,2.80
2023-12-08T04:47:58.013Z,3.30
2023-12-08T04:48:31.330Z,3.70
2023-12-08T04:49:04.777Z,3.30
2023-12-08T04:49:42.118Z,3.30
2023-12-08T04:50:15.428Z,3.50
2023-12-08T04:50:51.494Z,3.50
2023-12-08T04:51:25.007Z,3.10
2023-12-08T04:51:58.094Z,2.90
2023-12-08T04:53:04.292Z,3.80
2023-12-08T04:54:10.552Z,3.00
2023-12-08T04:54:43.713Z,2.80
2023-12-08T04:55:49.919Z,3.10
2023-12-08T04:56:23.063Z,3.30
2023-12-08T04:56:56.499Z,3.30
2023-12-08T04:57:34.286Z,2.70
2023-12-08T04:58:07.537Z,3.40
2023-12-08T04:58:40.683Z,3.10
2023-12-08T04:59:13.790Z,3.20
2023-12-08T04:59:47.477Z,3.20
2023-12-08T05:00:21.258Z,2.70
2023-12-08T05:00:54.414Z,2.60
2023-12-08T05:01:28.148Z,3.70
2023-12-08T05:02:34.327Z,2.80
2023-12-08T05:03:11.417Z,2.90
2023-12-08T05:03:44.742Z,2.80
2023-12-08T05:04:18.896Z,3.90
2023-12-08T05:04:53.273Z,3.30
2023-12-08T05:05:27.499Z,2.50
2023-12-08T05:06:00.751Z,2.70
2023-12-08T05:06:35.522Z,3.40
2023-12-08T05:07:09.119Z,3.20
2023-12-08T05:07:42.152Z,3.10
2023-12-08T05:08:17.428Z,3.60
2023-12-08T05:08:50.701Z,3.40
2023-12-08T05:09:24.191Z,3.10
2023-12-08T05:09:57.813Z,3.10
2023-12-08T05:10:32.692Z,2.60
2023-12-08T05:11:05.874Z,2.90
2023-12-08T05:11:38.954Z,2.60
2023-12-08T05:12:12.085Z,3.00
2023-12-08T05:12:48.066Z,2.50
2023-12-08T05:13:21.217Z,3.40
2023-12-08T05:13:57.820Z,2.60
2023-12-08T05:14:31.094Z,3.70
2023-12-08T05:15:05.591Z,2.40
2023-12-08T05:15:38.923Z,3.40
2023-12-08T05:16:12.782Z,3.40
2023-12-08T05:16:45.979Z,3.20
2023-12-08T05:17:19.198Z,2.90
2023-12-08T05:17:52.455Z,3.30
2023-12-08T05:18:27.958Z,3.40
2023-12-08T05:19:01.314Z,3.10
2023-12-08T05:19:34.589Z,3.20
2023-12-08T05:20:08.330Z,2.40
2023-12-08T05:20:41.525Z,3.10
2023-12-08T05:21:14.802Z,3.30
2023-12-08T05:21:47.934Z,3.60
2023-12-08T05:22:56.289Z,3.30
2023-12-08T05:23:29.394Z,2.80
2023-12-08T05:24:05.814Z,3.20
2023-12-08T05:24:39.763Z,3.30
2023-12-08T05:25:15.393Z,3.20
2023-12-08T05:25:48.476Z,3.00
2023-12-08T05:26:24.996Z,3.20
2023-12-08T05:26:58.909Z,4.30
2023-12-08T05:27:32.161Z,2.60
2023-12-08T05:28:05.265Z,3.00
2023-12-08T05:29:11.643Z,3.50
2023-12-08T05:29:44.935Z,2.90
2023-12-08T05:30:18.161Z,3.90
2023-12-08T05:30:56.619Z,3.80
2023-12-08T05:31:29.733Z,3.40
2023-12-08T05:32:02.873Z,3.20
2023-12-08T05:32:39.152Z,2.80
2023-12-08T05:33:12.441Z,3.40
2023-12-08T05:33:45.919Z,2.90
2023-12-08T05:34:20.152Z,2.60
2023-12-08T05:34:53.418Z,3.40
2023-12-08T05:35:26.680Z,2.60
2023-12-08T05:35:59.987Z,3.60
2023-12-08T05:36:33.838Z,3.40
2023-12-08T05:37:07.436Z,3.40
2023-12-08T05:37:40.693Z,4.10
2023-12-08T05:38:13.773Z,3.20
2023-12-08T05:38:48.366Z,2.90
2023-12-08T05:39:24.545Z,2.90
2023-12-08T05:39:57.695Z,3.00
2023-12-08T05:40:31.986Z,3.10
2023-12-08T05:41:05.531Z,3.10
2023-12-08T05:41:38.731Z,3.40
2023-12-08T05:42:11.804Z,2.80
2023-12-08T05:43:20.565Z,2.90
2023-12-08T05:43:53.745Z,2.70
2023-12-08T05:45:00.383Z,3.10
2023-12-08T05:45:33.552Z,2.60
2023-12-08T05:46:06.948Z,3.90
2023-12-08T05:46:40.270Z,3.00
2023-12-08T05:47:13.374Z,3.80
2023-12-08T05:47:46.844Z,2.30
2023-12-08T05:48:20.333Z,3.20
2023-12-08T05:48:53.569Z,2.70
2023-12-08T05:49:27.207Z,2.70
2023-12-08T05:50:00.432Z,2.80
2023-12-08T05:50:34.602Z,2.80
2023-12-08T05:51:07.950Z,2.10
2023-12-08T05:51:41.141Z,3.30
2023-12-08T05:52:15.560Z,3.30
2023-12-08T05:52:51.721Z,2.80
2023-12-08T05:53:24.856Z,3.60
2023-12-08T05:53:58.074Z,3.20
2023-12-08T05:54:34.221Z,2.50
2023-12-08T05:55:07.658Z,2.30
2023-12-08T05:55:41.080Z,2.80
2023-12-08T05:56:14.605Z,2.90
2023-12-08T05:56:49.559Z,3.20
2023-12-08T05:57:23.717Z,2.90
2023-12-08T05:57:57.236Z,2.30
2023-12-08T05:58:30.378Z,2.90
2023-12-08T05:59:40.993Z,2.10
2023-12-08T06:00:14.648Z,2.60
2023-12-08T06:00:47.973Z,2.80
2023-12-08T06:01:24.389Z,2.40
2023-12-08T06:01:58.414Z,2.70
2023-12-08T06:02:31.568Z,2.60
2023-12-08T06:03:04.683Z,2.50
2023-12-08T06:03:37.813Z,3.20
2023-12-08T06:04:13.117Z,2.10
2023-12-08T06:04:46.266Z,2.30
2023-12-08T06:05:24.961Z,3.00
2023-12-08T06:05:58.408Z,3.60
2023-12-08T06:06:34.442Z,3.20
2023-12-08T06:07:07.770Z,2.40
2023-12-08T06:07:41.462Z,3.30
2023-12-08T06:08:15.032Z,2.70
2023-12-08T06:08:50.733Z,2.20
2023-12-08T06:09:24.820Z,2.40
2023-12-08T06:09:59.840Z,2.70
2023-12-08T06:10:33.024Z,3.10
2023-12-08T06:11:41.372Z,2.60
2023-12-08T06:12:17.199Z,3.30
2023-12-08T06:12:52.150Z,2.40
2023-12-08T06:13:26.463Z,3.10
2023-12-08T06:13:59.612Z,2.60
2023-12-08T06:14:33.495Z,2.20
2023-12-08T06:15:08.363Z,2.50
2023-12-08T06:15:41.648Z,2.40
2023-12-08T06:16:14.857Z,2.40
2023-12-08T06:16:47.971Z,2.40
2023-12-08T06:17:54.213Z,2.50
2023-12-08T06:18:27.644Z,2.70
2023-12-08T06:19:00.955Z,3.10
2023-12-08T06:19:34.225Z,2.40
2023-12-08T06:20:43.386Z,2.50
2023-12-08T06:21:17.137Z,2.40
2023-12-08T06:21:50.211Z,2.50
2023-12-08T06:22:23.394Z,2.70
2023-12-08T06:23:29.576Z,2.60
2023-12-08T06:24:04.421Z,3.00
2023-12-08T06:24:37.765Z,2.50
2023-12-08T06:25:44.060Z,2.10
2023-12-08T06:26:17.084Z,2.50
2023-12-08T06:27:23.382Z,2.20
2023-12-08T06:27:56.406Z,2.90
2023-12-08T06:29:06.138Z,2.60
2023-12-08T06:30:13.166Z,2.90
2023-12-08T06:30:50.053Z,2.70
2023-12-08T06:31:25.766Z,2.50
2023-12-08T06:31:58.866Z,2.10
2023-12-08T06:32:32.260Z,2.30
2023-12-08T06:33:05.527Z,2.50
2023-12-08T06:33:38.842Z,2.80
2023-12-08T06:34:16.633Z,2.50
2023-12-08T06:34:50.792Z,2.70
2023-12-08T06:35:24.017Z,2.40
2023-12-08T06:36:31.133Z,2.40
2023-12-08T06:37:40.355Z,2.80
2023-12-08T06:38:13.433Z,2.00
2023-12-08T06:38:48.695Z,2.00
2023-12-08T06:39:26.163Z,1.80
2023-12-08T06:39:59.377Z,2.50
2023-12-08T06:40:33.988Z,2.40
2023-12-08T06:41:07.389Z,2.30
2023-12-08T06:41:40.923Z,2.30
2023-12-08T06:42:14.197Z,2.60
2023-12-08T06:43:21.196Z,1.60
2023-12-08T06:43:54.361Z,1.80
2023-12-08T06:44:29.014Z,1.20
2023-12-08T06:45:04.555Z,2.00
2023-12-08T06:45:38.859Z,1.90
2023-12-08T06:46:13.294Z,1.90
2023-12-08T06:47:20.482Z,1.80
2023-12-08T06:47:54.894Z,1.00
2023-12-08T06:48:28.952Z,1.00
2023-12-08T06:49:02.801Z,1.60
2023-12-08T06:49:36.291Z,1.90
2023-12-08T06:50:09.764Z,1.40
2023-12-08T06:50:42.827Z,1.40
2023-12-08T06:51:15.938Z,1.60
2023-12-08T06:51:49.086Z,1.60
2023-12-08T06:52:22.195Z,1.80
2023-12-08T06:52:58.222Z,1.90
2023-12-08T06:53:31.330Z,1.90
2023-12-08T06:54:38.707Z,2.30
2023-12-08T06:55:12.919Z,1.50
2023-12-08T06:55:46.112Z,1.60
2023-12-08T06:56:19.794Z,2.10
2023-12-08T06:56:52.961Z,2.10
2023-12-08T06:57:26.281Z,1.80
2023-12-08T06:57:59.527Z,1.70
2023-12-08T06:59:05.697Z,1.40
2023-12-08T06:59:38.876Z,1.70
2023-12-08T07:00:12.697Z,1.60
2023-12-08T07:00:45.884Z,1.90
2023-12-08T07:01:19.092Z,2.10
2023-12-08T07:02:25.365Z,1.70
2023-12-08T07:02:58.584Z,1.30
2023-12-08T07:03:31.919Z,2.10
2023-12-08T07:04:05.330Z,2.30
2023-12-08T07:04:38.448Z,1.40
2023-12-08T07:05:46.230Z,1.30
2023-12-08T07:06:22.545Z,1.30
2023-12-08T07:06:56.218Z,1.40
2023-12-08T07:07:30.117Z,1.50
2023-12-08T07:08:03.423Z,1.40
2023-12-08T07:08:36.607Z,1.80
2023-12-08T07:09:10.695Z,1.20
2023-12-08T07:09:43.812Z,1.20
2023-12-08T07:10:52.715Z,1.40
2023-12-08T07:11:25.979Z,1.00
2023-12-08T07:11:59.283Z,1.40
2023-12-08T07:12:32.530Z,1.20
2023-12-08T07:13:05.626Z,1.80
2023-12-08T07:14:11.729Z,1.30
2023-12-08T07:14:44.778Z,1.70
2023-12-08T07:15:51.037Z,1.00
2023-12-08T07:16:24.240Z,1.10
2023-12-08T07:16:57.538Z,1.20
2023-12-08T07:17:31.050Z,1.40
2023-12-08T07:18:04.922Z,1.30
2023-12-08T07:18:39.093Z,1.40
2023-12-08T07:19:12.677Z,0.80
2023-12-08T07:19:46.163Z,1.20
2023-12-08T07:20:19.746Z,0.90
2023-12-08T07:20:52.893Z,1.40
2023-12-08T07:21:26.182Z,1.20
2023-12-08T07:21:59.838Z,1.30
2023-12-08T07:22:35.829Z,1.20
2023-12-08T07:23:09.640Z,1.00
2023-12-08T07:23:43.372Z,1.20
2023-12-08T07:24:18.018Z,1.20
2023-12-08T07:24:56.884Z,1.50
2023-12-08T07:25:30.069Z,1.20
2023-12-08T07:26:03.717Z,1.00
2023-12-08T07:26:40.167Z,1.20
2023-12-08T07:27:13.393Z,1.00
2023-12-08T07:27:46.553Z,1.30
2023-12-08T07:28:19.731Z,1.30
2023-12-08T07:28:53.062Z,1.10
2023-12-08T07:29:26.183Z,0.90
2023-12-08T07:30:02.359Z,0.80
2023-12-08T07:30:40.968Z,1.50
2023-12-08T07:31:17.122Z,1.10
2023-12-08T07:31:52.407Z,1.00
2023-12-08T07:32:25.893Z,1.10
2023-12-08T07:33:02.028Z,1.50
2023-12-08T07:33:35.620Z,1.30
2023-12-08T07:34:10.885Z,1.30
2023-12-08T07:34:44.250Z,1.10
2023-12-08T07:35:21.236Z,0.80
2023-12-08T07:35:56.090Z,1.50
2023-12-08T07:36:29.368Z,1.40
2023-12-08T07:37:02.684Z,1.00
2023-12-08T07:37:40.230Z,1.40
2023-12-08T07:38:13.665Z,0.90
2023-12-08T07:38:52.110Z,1.20
2023-12-08T07:39:27.940Z,0.80
2023-12-08T07:40:02.478Z,0.80
2023-12-08T07:40:40.748Z,1.30
2023-12-08T07:41:19.181Z,1.20
2023-12-08T07:41:54.802Z,1.30
2023-12-08T07:42:30.560Z,1.00
2023-12-08T07:43:06.763Z,0.90
2023-12-08T07:43:42.753Z,1.50
2023-12-08T07:44:20.335Z,1.40
2023-12-08T07:44:56.187Z,1.20
2023-12-08T07:45:31.676Z,1.60
2023-12-08T07:46:09.301Z,1.20
2023-12-08T07:46:42.504Z,1.00
2023-12-08T07:47:15.918Z,1.20
2023-12-08T07:47:51.615Z,1.20
2023-12-08T07:48:25.078Z,1.30
2023-12-08T07:48:59.510Z,1.50
2023-12-08T07:49:32.834Z,1.30
2023-12-08T07:50:07.442Z,1.30
2023-12-08T07:50:43.261Z,1.30
2023-12-08T07:51:16.594Z,1.00
2023-12-08T07:51:52.225Z,0.80
2023-12-08T07:52:31.280Z,1.40
2023-12-08T07:53:07.882Z,1.20
2023-12-08T07:53:46.565Z,1.60
2023-12-08T07:54:20.138Z,0.90
2023-12-08T07:54:53.309Z,1.30
2023-12-08T07:55:28.865Z,1.10
2023-12-08T07:56:02.123Z,1.00
2023-12-08T07:56:35.280Z,1.30
2023-12-08T07:57:09.077Z,1.20
2023-12-08T07:57:43.233Z,1.00
2023-12-08T07:58:21.029Z,1.30
2023-12-08T07:58:54.324Z,1.10
2023-12-08T07:59:27.796Z,1.50
2023-12-08T08:00:01.078Z,1.20
2023-12-08T08:00:34.448Z,1.10
2023-12-08T08:01:10.275Z,1.60
2023-12-08T08:01:47.556Z,1.30
2023-12-08T08:02:20.938Z,0.90
2023-12-08T08:02:54.275Z,1.80
2023-12-08T08:03:32.614Z,2.00
2023-12-08T08:04:07.040Z,1.30
2023-12-08T08:04:40.659Z,1.90
2023-12-08T08:05:14.361Z,1.50
2023-12-08T08:05:51.470Z,1.40
2023-12-08T08:06:27.356Z,1.90
2023-12-08T08:07:03.614Z,1.30
2023-12-08T08:07:38.552Z,1.20
2023-12-08T08:08:12.256Z,1.20
2023-12-08T08:08:46.410Z,1.10
2023-12-08T08:09:19.631Z,1.60
2023-12-08T08:09:58.122Z,1.20
2023-12-08T08:10:31.419Z,1.70
2023-12-08T08:11:05.334Z,1.80
2023-12-08T08:11:41.885Z,1.30
2023-12-08T08:12:17.751Z,1.40
2023-12-08T08:12:51.099Z,1.20
2023-12-08T08:13:26.006Z,1.30
2023-12-08T08:13:59.644Z,1.90
2023-12-08T08:14:32.932Z,1.20
2023-12-08T08:15:09.000Z,1.60
2023-12-08T08:15:42.296Z,3.50
2023-12-08T08:16:15.576Z,3.40
2023-12-08T08:16:49.049Z,11.70
2023-12-08T08:17:24.753Z,14.30
2023-12-08T08:18:18.410Z,6.10
2023-12-08T08:18:51.878Z,5.10
2023-12-08T08:19:25.517Z,4.40
2023-12-08T08:19:58.740Z,3.00
2023-12-08T08:21:07.932Z,4.90
2023-12-08T08:21:41.552Z,4.70
2023-12-08T08:22:29.529Z,3.60
2023-12-08T08:23:06.670Z,3.30
2023-12-08T08:23:39.990Z,3.90
2023-12-08T08:24:16.037Z,4.60